Latest Coastal Weather Observations for Bairnsdale

IDV60701

Issued at 9:02 pm EDT Thursday 21 February 2019 (issued every 10 minutes, with the page automatically refreshed every 10 minutes)

About coastal observations | Map of coastal stations | Coastal observations for VIC | Marine services | Other Formats
Station Details ID: 085279 Name: BAIRNSDALE AIRPORT Lat: -37.88 Lon: 147.57 Height: 49.4 m
Data from the previous 72 hours. | See also: Recent months at Bairnsdale
Date/Time
EDT
Wind Sea
Height
m
Swell Vis
km
Cloud Weather Temp
°C
Press
hPa
Rain since
9am
mm
Dir  Spd
kts
Gust
kts
Height
m
Period
s
Dir
21/09:00pm ESE 4 5 - - - - 10 - - 16.1 1021.9 0.0
21/08:30pm SE 7 8 - - - - 10 - - 16.9 1021.6 0.0
21/08:00pm SSE 10 12 - - - - 10 - - 17.5 1021.4 0.0
21/07:30pm SE 11 13 - - - - 10 - - 18.1 1021.0 0.0
21/07:00pm S 13 17 - - - - 10 - - 19.2 1020.6 0.0
21/06:30pm SSE 12 16 - - - - 10 - - 19.4 1020.3 0.0
21/06:00pm SSE 16 20 - - - - 10 - - 20.1 1020.0 0.0
21/05:30pm SSE 15 19 - - - - 10 - - 19.7 1019.6 0.0
21/05:00pm SSE 14 18 - - - - 10 - - 21.4 1019.2 0.0
21/04:30pm SSE 13 17 - - - - 10 - - 21.9 1019.0 0.0
21/04:00pm SSE 15 19 - - - - 10 - - 20.8 1019.0 0.0
21/03:30pm SSW 11 19 - - - - 10 - - 22.8 1019.2 0.0
21/03:00pm SSW 12 18 - - - - 10 - - 21.9 1019.3 0.0
21/02:30pm SSW 12 19 - - - - 10 - - 22.6 1019.4 0.0
21/02:00pm SW 12 18 - - - - 10 - - 21.6 1019.6 0.0
21/01:30pm WSW 12 18 - - - - 10 - - 21.6 1019.6 0.0
21/01:00pm SW 13 24 - - - - 10 - - 21.9 1019.5 0.0
21/12:30pm SW 11 20 - - - - 10 - - 20.7 1020.0 0.0
21/12:00pm SW 13 19 - - - - 10 - - 20.9 1020.0 0.0
21/11:30am WSW 12 19 - - - - 10 - - 19.5 1020.1 0.0
21/11:00am SW 11 16 - - - - 10 - - 18.9 1019.9 0.0
21/10:30am SW 12 18 - - - - 10 - - 19.0 1019.9 0.0
21/10:00am SW 12 18 - - - - 10 - - 19.4 1019.6 0.0
21/09:30am W 8 11 - - - - 10 - - 17.6 1019.6 0.0
21/09:00am WSW 9 11 - - - - 10 - - 16.7 1019.5 0.0
21/08:30am W 7 9 - - - - 10 - - 16.0 1019.2 0.0
21/08:00am W 6 9 - - - - 10 - - 15.3 1018.6 0.0
21/07:30am WNW 5 7 - - - - 10 - - 14.9 1018.2 0.0
21/07:00am WNW 5 6 - - - - 10 - - 14.5 1017.9 0.0
21/06:30am WNW 6 8 - - - - 10 - - 14.1 1017.6 0.0
21/06:00am WNW 5 6 - - - - 10 - - 13.8 1017.3 0.0
21/05:30am W 5 6 - - - - 10 - - 13.8 1017.0 0.0
21/05:00am WSW 5 7 - - - - 10 - - 14.3 1016.6 0.0
21/04:30am WNW 5 6 - - - - 10 - - 13.4 1016.5 0.0
21/04:00am NW 6 7 - - - - 10 - - 12.1 1016.4 0.0
21/03:30am NW 4 5 - - - - 10 - - 12.5 1016.4 0.0
21/03:00am NW 4 5 - - - - 10 - - 12.2 1016.3 0.0
21/02:30am NW 4 5 - - - - 10 - - 13.1 1016.5 0.0
21/02:00am W 5 7 - - - - 10 - - 14.1 1016.5 0.0
21/01:30am W 7 9 - - - - 10 - - 14.6 1016.5 0.0
21/01:00am W 6 8 - - - - 10 - - 14.6 1016.5 0.0
21/12:30am W 4 5 - - - - 10 - - 14.5 1016.5 0.0
21/12:00am NW 4 6 - - - - 10 - - 15.6 1016.4 0.0
 
Date/Time
EDT
Wind Sea
Height
m
Swell Vis
km
Cloud Weather Temp
°C
Press
hPa
Rain since
9am
mm
Dir  Spd
kts
Gust
kts
Height
m
Period
s
Dir
20/11:30pm NNW 5 6 - - - - 10 - - 16.4 1016.5 0.0
20/11:00pm NW 4 5 - - - - 10 - - 15.3 1016.4 0.0
20/10:30pm N 5 7 - - - - 10 - - 16.7 1016.2 0.0
20/10:00pm N 7 11 - - - - 10 - - 17.1 1015.9 0.0
20/09:30pm NNE 4 6 - - - - 10 - - 16.4 1015.6 0.0
20/09:00pm N 3 5 - - - - 10 - - 16.6 1015.2 0.0
20/08:30pm NE 5 6 - - - - 10 - - 17.2 1014.9 0.0
20/08:00pm ENE 6 7 - - - - 10 - - 18.0 1014.4 0.0
20/07:30pm SSE 8 11 - - - - 10 - - 19.2 1014.1 0.0
20/07:00pm SE 10 13 - - - - 10 - - 20.1 1013.7 0.0
20/06:30pm SE 10 12 - - - - 10 - - 20.6 1013.4 0.0
20/06:00pm SE 11 16 - - - - 10 - - 21.1 1013.0 0.0
20/05:30pm SE 11 15 - - - - 10 - - 21.9 1012.8 0.0
20/05:00pm SSE 13 20 - - - - 10 - - 22.4 1012.5 0.0
20/04:30pm SSE 12 18 - - - - 10 - - 22.1 1012.4 0.0
20/04:00pm S 14 22 - - - - 10 - - 22.9 1012.2 0.0
20/03:30pm SW 12 17 - - - - 10 - - 24.8 1012.2 0.0
20/03:00pm SSW 15 22 - - - - 10 - - 23.5 1012.5 0.0
20/02:30pm SW 12 19 - - - - 10 - - 23.6 1012.7 0.0
20/02:00pm SSW 12 17 - - - - 10 - - 22.8 1012.8 0.0
20/01:30pm SW 12 17 - - - - 10 - - 22.7 1012.9 0.0
20/01:00pm WSW 8 17 - - - - 10 - - 22.3 1013.0 0.0
20/12:30pm WSW 9 14 - - - - 10 - - 22.1 1013.4 0.0
20/12:00pm WSW 7 13 - - - - 10 - - 21.4 1013.5 0.0
20/11:30am NW 7 12 - - - - 10 - - 21.0 1013.8 0.0
20/11:00am NW 8 12 - - - - 10 - - 20.8 1014.0 0.0
20/10:30am WSW 7 11 - - - - 10 - - 19.5 1014.2 0.0
20/10:00am W 10 13 - - - - 10 - - 19.0 1014.3 0.0
20/09:30am W 9 13 - - - - 10 - - 18.0 1014.3 0.0
20/09:00am W 9 13 - - - - 10 - - 17.1 1014.4 0.0
20/08:30am NW 7 8 - - - - 10 - - 15.8 1014.4 0.0
20/08:00am NW 6 8 - - - - 10 - - 14.8 1014.2 0.0
20/07:30am NW 4 5 - - - - 10 - - 13.1 1014.0 0.0
20/07:00am WNW 4 5 - - - - 10 - - 12.9 1013.9 0.0
20/06:30am W 5 7 - - - - 10 - - 13.2 1013.7 0.0
20/06:00am W 4 5 - - - - 10 - - 13.6 1013.5 0.0
20/05:30am WNW 5 5 - - - - 10 - - 14.1 1013.3 0.0
20/05:00am NW 4 4 - - - - 10 - - 13.8 1013.2 0.0
20/04:30am WNW 3 4 - - - - 10 - - 14.3 1013.1 0.0
20/04:00am W 5 6 - - - - 10 - - 14.6 1013.4 0.0
20/03:30am NW 5 6 - - - - 10 - - 14.8 1013.4 0.0
20/03:00am WNW 5 7 - - - - 10 - - 14.9 1013.7 0.0
20/02:30am NNW 3 3 - - - - 10 - - 15.2 1013.9 0.0
20/02:00am W 4 5 - - - - 10 - - 15.6 1014.2 0.0
20/01:30am SW 4 6 - - - - 10 - - 15.7 1014.5 0.0
20/01:00am WSW 4 6 - - - - 10 - - 15.9 1014.6 0.0
20/12:30am SW 4 6 - - - - 10 - - 16.0 1014.8 0.0
20/12:00am SW 5 6 - - - - 10 - - 16.0 1014.5 0.0
 
Date/Time
EDT
Wind Sea
Height
m
Swell Vis
km
Cloud Weather Temp
°C
Press
hPa
Rain since
9am
mm
Dir  Spd
kts
Gust
kts
Height
m
Period
s
Dir
19/11:30pm SSW 5 9 - - - - 10 - - 16.1 1014.6 0.0
19/11:00pm SSW 7 9 - - - - 10 - - 16.5 1014.5 0.0
19/10:30pm SSW 7 9 - - - - 10 - - 16.5 1014.5 0.0
19/10:00pm SSW 8 11 - - - - 10 - - 16.8 1014.4 0.0
19/09:30pm S 6 8 - - - - 10 - - 17.2 1014.0 0.0
19/09:00pm S 8 10 - - - - 10 - - 17.4 1013.7 0.0
19/08:30pm SE 8 11 - - - - 10 - - 17.5 1013.3 0.0
19/08:00pm SSE 8 11 - - - - 10 - - 17.5 1013.1 0.0
19/07:30pm SSE 13 17 - - - - 10 - - 17.4 1012.4 0.0
19/07:00pm SSE 14 20 - - - - 10 - - 18.2 1012.2 0.0
19/06:30pm SSE 13 17 - - - - 10 - - 18.6 1011.8 0.0
19/06:00pm SE 14 20 - - - - 10 - - 18.6 1011.5 0.0
19/05:30pm SSE 15 19 - - - - 10 - - 19.8 1011.1 0.0
19/05:00pm SSE 17 22 - - - - 10 - - 20.0 1010.7 0.0
19/04:30pm SSE 17 23 - - - - 10 - - 21.1 1010.4 0.0
19/04:00pm S 14 20 - - - - 10 - - 21.6 1010.3 0.0
19/03:30pm SW 13 18 - - - - 10 - - 22.9 1010.3 0.0
19/03:00pm SW 11 17 - - - - 10 - - 23.0 1010.6 0.0
19/02:30pm SSW 12 17 - - - - 10 - - 21.2 1010.7 0.0
19/02:00pm SW 10 17 - - - - 10 - - 21.1 1010.9 0.0
19/01:30pm SW 12 16 - - - - 10 - - 20.5 1010.9 0.0
19/01:00pm WSW 11 18 - - - - 10 - - 20.1 1011.1 0.0
19/12:30pm WSW 13 19 - - - - 10 - - 19.5 1011.3 0.0
19/12:00pm WSW 12 18 - - - - 10 - - 19.4 1011.3 0.0
19/11:30am WSW 11 16 - - - - 10 - - 19.5 1011.5 0.0
19/11:00am WSW 11 16 - - - - 10 - - 19.2 1011.5 0.0
19/10:30am SW 12 19 - - - - 10 - - 18.7 1011.5 0.0
19/10:00am SW 8 12 - - - - 10 - - 18.8 1011.2 0.0
19/09:30am WSW 13 19 - - - - 10 - - 17.2 1011.2 0.0
19/09:00am WSW 12 16 - - - - 10 - - 17.4 1010.9 0.6
19/08:30am W 7 11 - - - - 10 - - 16.3 1010.7 0.6
19/08:00am W 8 11 - - - - 10 - - 15.1 1010.6 0.6
19/07:30am WSW 9 14 - - - - 10 - - 15.2 1010.4 0.6
19/07:00am WSW 8 11 - - - - 10 - - 15.0 1010.0 0.6
19/06:30am WSW 7 10 - - - - 10 - - 15.0 1009.6 0.6
19/06:00am W 9 11 - - - - 10 - - 15.4 1009.2 0.6
19/05:30am W 7 11 - - - - 10 - - 15.6 1009.1 0.6
19/05:00am W 7 10 - - - - 10 - - 15.8 1009.0 0.6
19/04:30am W 6 9 - - - - 10 - - 15.9 1009.1 0.6
19/04:00am W 6 8 - - - - 10 - - 16.0 1009.2 0.6
19/03:30am W 7 8 - - - - 10 - - 16.1 1009.1 0.6
19/03:00am W 6 9 - - - - 10 - - 16.2 1009.2 0.6
19/02:30am WSW 6 8 - - - - 10 - - 16.3 1009.2 0.6
19/02:00am W 6 8 - - - - 10 - - 16.5 1009.5 0.6
19/01:30am W 6 8 - - - - 10 - - 16.7 1009.7 0.6
19/01:00am WSW 7 9 - - - - 10 - - 16.9 1009.7 0.6
19/12:30am SW 7 9 - - - - 10 - - 17.1 1010.0 0.6
19/12:00am SW 7 9 - - - - 10 - - 17.3 1010.1 0.6
 
Date/Time
EDT
Wind Sea
Height
m
Swell Vis
km
Cloud Weather Temp
°C
Press
hPa
Rain since
9am
mm
Dir  Spd
kts
Gust
kts
Height
m
Period
s
Dir
18/11:30pm WSW 6 9 - - - - 10 - - 17.6 1010.1 0.6
18/11:00pm SW 8 11 - - - - 10 - - 17.9 1009.9 0.6
18/10:30pm SSW 6 8 - - - - 10 - - 18.0 1010.0 0.6
18/10:00pm SSW 11 14 - - - - 10 - - 18.0 1009.5 0.6
18/09:30pm S 9 11 - - - - 10 - - 18.4 1008.9 0.6

Other formats

Comma delimited format used in spreadsheet applications
http://www.bom.gov.au/fwo/IDV60701/IDV60701.94912.axf

JavaScript Object Notation format (JSON) in row-major order
http://www.bom.gov.au/fwo/IDV60701/IDV60701.94912.json

Data quality

Most of these data are generated automatically and are frequently updated. Quality checks on data are not normally performed. It is possible for incorrect values to appear. Refer to information at About Latest Weather Observations and please check the disclaimer before using these data.